Augusta Regional At Bush Field
KAGS : rendu visible

Aérodrome :











RETROUVEZ-NOUS SUR...

 
LOGIN :

S'inscrire | Disclaimer

   EN    FR    IT 

 









Légende :    VFR   VFR Marginal   IFR   IFR Intensif   IFR Très Intensif
Visi : 
Plafond : 
>= 8 km
>= 3000ft
5 à 8 km
1000 à 3000 ft
1500m à 5 km
500 à 1000 ft
800 à 1500m
200 à 500 ft
< 800m
< 200 ft
Symboles :   Orages  Brouillard  Fortes neiges  Fortes précipitations  Vent > 20 kt






- Altitude de l'aérodrome : 144 ft
- Code IATA : AGS


KAGS - Augusta Regional At Bush Field

DERNIER METAR :
  • 181753Z 13007KT 10SM OVC110 16/06 A3032 RMK AO2 SLP267 T01560061 10156 20044 58047

METARs EXPIRÉS :
  • 181653Z 14006KT 10SM FEW085 BKN110 13/05 A3037 RMK AO2 SLP286 T01330050
  • 181553Z 12008KT 10SM CLR 12/03 A3041 RMK AO2 SLP299 T01170028

TAF KAGS
Valide du 18 à 18h jusqu'au 19 à 18h UTC


181733Z 1818/1918 14008KT P6SM SCT025 BKN035
TEMPO 1820/1824 BKN025
FM190000 16008KT P6SM -SHRA BKN025 OVC050 WS020/20038KT
FM190400 23010G16KT P6SM -SHRA OVC015 WS020/22045KT
FM191200 28010G18KT P6SM SCT035



MET'MAP, la Météo Aéronautique d'un coup d'oeil ! - Copyright ORBIFLY Décembre 2007 - Disclaimer

ORBIFLY MET'MAP TEAM :

Programmation & Développement : Alexandra Zaïnal
Sur une idée originale de : Baudouin d'Aumeries
Assistance à la programmation : Marc-Olivier Méhu
Soutien technique & logistique : Manuel Goepfert

Contact : metmap@orbifly.com




SOURCES & CREDITS :

   NOAA       Earth
Advisory